sensor_id;sensor_type;location;lat;lon;timestamp;temperature;humidity
80230;DHT22;69540;42.136;24.742;2024-01-10T00:01:22;21.50;29.70
80230;DHT22;69540;42.136;24.742;2024-01-10T00:03:55;21.40;29.70
80230;DHT22;69540;42.136;24.742;2024-01-10T00:06:20;21.40;29.70
80230;DHT22;69540;42.136;24.742;2024-01-10T00:08:46;21.50;29.80
80230;DHT22;69540;42.136;24.742;2024-01-10T00:11:12;21.50;29.70
80230;DHT22;69540;42.136;24.742;2024-01-10T00:13:39;21.40;29.70
80230;DHT22;69540;42.136;24.742;2024-01-10T00:16:05;21.40;29.70
80230;DHT22;69540;42.136;24.742;2024-01-10T00:18:30;21.40;29.80
80230;DHT22;69540;42.136;24.742;2024-01-10T00:20:57;21.40;29.70
80230;DHT22;69540;42.136;24.742;2024-01-10T00:23:23;21.40;29.60
80230;DHT22;69540;42.136;24.742;2024-01-10T00:25:49;21.40;29.60
80230;DHT22;69540;42.136;24.742;2024-01-10T00:28:15;21.40;29.70
80230;DHT22;69540;42.136;24.742;2024-01-10T00:30:44;21.40;29.80
80230;DHT22;69540;42.136;24.742;2024-01-10T00:33:10;21.40;29.70
80230;DHT22;69540;42.136;24.742;2024-01-10T00:35:37;21.40;29.70
80230;DHT22;69540;42.136;24.742;2024-01-10T00:38:02;21.40;29.70
80230;DHT22;69540;42.136;24.742;2024-01-10T00:40:28;21.40;29.80
80230;DHT22;69540;42.136;24.742;2024-01-10T00:42:54;21.40;29.70
80230;DHT22;69540;42.136;24.742;2024-01-10T00:45:20;21.40;29.70
80230;DHT22;69540;42.136;24.742;2024-01-10T00:47:48;21.40;29.70
80230;DHT22;69540;42.136;24.742;2024-01-10T00:50:13;21.40;29.60
80230;DHT22;69540;42.136;24.742;2024-01-10T00:52:39;21.40;29.70
80230;DHT22;69540;42.136;24.742;2024-01-10T00:55:05;21.40;29.70
80230;DHT22;69540;42.136;24.742;2024-01-10T00:57:30;21.40;29.60
80230;DHT22;69540;42.136;24.742;2024-01-10T00:59:56;21.40;29.70
80230;DHT22;69540;42.136;24.742;2024-01-10T01:02:21;21.40;29.60
80230;DHT22;69540;42.136;24.742;2024-01-10T01:04:47;21.30;29.60
80230;DHT22;69540;42.136;24.742;2024-01-10T01:07:13;21.30;29.60
80230;DHT22;69540;42.136;24.742;2024-01-10T01:09:38;21.40;29.60
80230;DHT22;69540;42.136;24.742;2024-01-10T01:12:04;21.30;29.60
80230;DHT22;69540;42.136;24.742;2024-01-10T01:14:30;21.30;29.60
80230;DHT22;69540;42.136;24.742;2024-01-10T01:16:55;21.30;29.50
80230;DHT22;69540;42.136;24.742;2024-01-10T01:19:21;21.40;29.60
80230;DHT22;69540;42.136;24.742;2024-01-10T01:21:46;21.30;29.50
80230;DHT22;69540;42.136;24.742;2024-01-10T01:24:12;21.40;29.60
80230;DHT22;69540;42.136;24.742;2024-01-10T01:26:38;21.40;29.60
80230;DHT22;69540;42.136;24.742;2024-01-10T01:29:03;21.30;29.50
80230;DHT22;69540;42.136;24.742;2024-01-10T01:31:29;21.40;29.50
80230;DHT22;69540;42.136;24.742;2024-01-10T01:33:55;21.40;29.50
80230;DHT22;69540;42.136;24.742;2024-01-10T01:36:21;21.40;29.50
80230;DHT22;69540;42.136;24.742;2024-01-10T01:38:46;21.40;29.60
80230;DHT22;69540;42.136;24.742;2024-01-10T01:41:12;21.30;29.50
80230;DHT22;69540;42.136;24.742;2024-01-10T01:43:40;21.30;29.40
80230;DHT22;69540;42.136;24.742;2024-01-10T01:46:06;21.30;29.50
80230;DHT22;69540;42.136;24.742;2024-01-10T01:48:32;21.30;29.50
80230;DHT22;69540;42.136;24.742;2024-01-10T01:51:02;21.30;29.50
80230;DHT22;69540;42.136;24.742;2024-01-10T01:53:28;21.30;29.40
80230;DHT22;69540;42.136;24.742;2024-01-10T01:55:55;21.30;29.40
80230;DHT22;69540;42.136;24.742;2024-01-10T01:58:22;21.30;29.40
80230;DHT22;69540;42.136;24.742;2024-01-10T02:00:49;21.30;29.40
80230;DHT22;69540;42.136;24.742;2024-01-10T02:03:15;21.30;29.50
80230;DHT22;69540;42.136;24.742;2024-01-10T02:05:41;21.30;29.40
80230;DHT22;69540;42.136;24.742;2024-01-10T02:08:07;21.30;29.50
80230;DHT22;69540;42.136;24.742;2024-01-10T02:10:34;21.30;29.40
80230;DHT22;69540;42.136;24.742;2024-01-10T02:13:00;21.30;29.50
80230;DHT22;69540;42.136;24.742;2024-01-10T02:15:26;21.30;29.40
80230;DHT22;69540;42.136;24.742;2024-01-10T02:17:51;21.30;29.40
80230;DHT22;69540;42.136;24.742;2024-01-10T02:20:17;21.30;29.40
80230;DHT22;69540;42.136;24.742;2024-01-10T02:22:44;21.30;29.40
80230;DHT22;69540;42.136;24.742;2024-01-10T02:25:10;21.30;29.40
80230;DHT22;69540;42.136;24.742;2024-01-10T02:27:37;21.30;29.50
80230;DHT22;69540;42.136;24.742;2024-01-10T02:30:04;21.30;29.50
80230;DHT22;69540;42.136;24.742;2024-01-10T02:32:30;21.30;29.50
80230;DHT22;69540;42.136;24.742;2024-01-10T02:34:56;21.30;29.40
80230;DHT22;69540;42.136;24.742;2024-01-10T02:37:22;21.30;29.40
80230;DHT22;69540;42.136;24.742;2024-01-10T02:39:48;21.30;29.40
80230;DHT22;69540;42.136;24.742;2024-01-10T02:42:14;21.30;29.50
80230;DHT22;69540;42.136;24.742;2024-01-10T02:44:39;21.30;29.30
80230;DHT22;69540;42.136;24.742;2024-01-10T02:47:07;21.30;29.20
80230;DHT22;69540;42.136;24.742;2024-01-10T02:49:33;21.30;29.40
80230;DHT22;69540;42.136;24.742;2024-01-10T02:51:59;21.30;29.30
80230;DHT22;69540;42.136;24.742;2024-01-10T02:54:25;21.30;29.40
80230;DHT22;69540;42.136;24.742;2024-01-10T02:56:51;21.30;29.20
80230;DHT22;69540;42.136;24.742;2024-01-10T02:59:17;21.30;29.30
80230;DHT22;69540;42.136;24.742;2024-01-10T03:01:42;21.30;29.30
80230;DHT22;69540;42.136;24.742;2024-01-10T03:04:09;21.30;29.20
80230;DHT22;69540;42.136;24.742;2024-01-10T03:06:34;21.30;29.20
80230;DHT22;69540;42.136;24.742;2024-01-10T03:09:00;21.30;29.20
80230;DHT22;69540;42.136;24.742;2024-01-10T03:11:25;21.30;29.20
80230;DHT22;69540;42.136;24.742;2024-01-10T03:14:01;21.30;29.20
80230;DHT22;69540;42.136;24.742;2024-01-10T03:16:27;21.30;29.20
80230;DHT22;69540;42.136;24.742;2024-01-10T03:18:53;21.30;29.30
80230;DHT22;69540;42.136;24.742;2024-01-10T03:21:18;21.30;29.20
80230;DHT22;69540;42.136;24.742;2024-01-10T03:23:57;21.30;29.10
80230;DHT22;69540;42.136;24.742;2024-01-10T03:26:26;21.30;29.10
80230;DHT22;69540;42.136;24.742;2024-01-10T03:28:52;21.30;29.20
80230;DHT22;69540;42.136;24.742;2024-01-10T03:31:18;21.30;29.20
80230;DHT22;69540;42.136;24.742;2024-01-10T03:33:44;21.20;29.10
80230;DHT22;69540;42.136;24.742;2024-01-10T03:36:15;21.30;29.20
80230;DHT22;69540;42.136;24.742;2024-01-10T03:38:41;21.30;29.20
80230;DHT22;69540;42.136;24.742;2024-01-10T03:41:07;21.20;29.10
80230;DHT22;69540;42.136;24.742;2024-01-10T03:43:32;21.20;29.10
80230;DHT22;69540;42.136;24.742;2024-01-10T03:45:58;21.20;29.20
80230;DHT22;69540;42.136;24.742;2024-01-10T03:48:24;21.20;29.10
80230;DHT22;69540;42.136;24.742;2024-01-10T03:50:50;21.20;29.20
80230;DHT22;69540;42.136;24.742;2024-01-10T03:53:16;21.20;29.10
80230;DHT22;69540;42.136;24.742;2024-01-10T03:55:41;21.20;29.10
80230;DHT22;69540;42.136;24.742;2024-01-10T03:58:07;21.20;29.00
80230;DHT22;69540;42.136;24.742;2024-01-10T04:00:33;21.20;29.00
80230;DHT22;69540;42.136;24.742;2024-01-10T04:02:59;21.20;29.00
80230;DHT22;69540;42.136;24.742;2024-01-10T04:05:24;21.20;29.00
80230;DHT22;69540;42.136;24.742;2024-01-10T04:07:51;21.20;29.10
80230;DHT22;69540;42.136;24.742;2024-01-10T04:10:17;21.20;29.00
80230;DHT22;69540;42.136;24.742;2024-01-10T04:12:44;21.20;29.20
80230;DHT22;69540;42.136;24.742;2024-01-10T04:15:10;21.20;29.10
80230;DHT22;69540;42.136;24.742;2024-01-10T04:17:37;21.20;29.00
80230;DHT22;69540;42.136;24.742;2024-01-10T04:20:03;21.20;29.20
80230;DHT22;69540;42.136;24.742;2024-01-10T04:22:29;21.20;29.20
80230;DHT22;69540;42.136;24.742;2024-01-10T04:24:57;21.20;29.20
80230;DHT22;69540;42.136;24.742;2024-01-10T04:27:23;21.20;29.20
80230;DHT22;69540;42.136;24.742;2024-01-10T04:29:49;21.20;29.30
80230;DHT22;69540;42.136;24.742;2024-01-10T04:32:14;21.20;29.30
80230;DHT22;69540;42.136;24.742;2024-01-10T04:34:40;21.10;29.30
80230;DHT22;69540;42.136;24.742;2024-01-10T04:37:07;21.20;29.30
80230;DHT22;69540;42.136;24.742;2024-01-10T04:39:34;21.20;29.30
80230;DHT22;69540;42.136;24.742;2024-01-10T04:42:00;21.20;29.30
80230;DHT22;69540;42.136;24.742;2024-01-10T04:44:26;21.20;29.30
80230;DHT22;69540;42.136;24.742;2024-01-10T04:46:51;21.20;29.60
80230;DHT22;69540;42.136;24.742;2024-01-10T04:49:17;21.20;28.10
80230;DHT22;69540;42.136;24.742;2024-01-10T04:51:43;20.70;25.70
80230;DHT22;69540;42.136;24.742;2024-01-10T04:54:09;20.40;25.50
80230;DHT22;69540;42.136;24.742;2024-01-10T04:56:36;20.10;25.10
80230;DHT22;69540;42.136;24.742;2024-01-10T04:59:02;19.90;25.30
80230;DHT22;69540;42.136;24.742;2024-01-10T05:01:28;19.80;25.20
80230;DHT22;69540;42.136;24.742;2024-01-10T05:03:54;19.80;25.30
80230;DHT22;69540;42.136;24.742;2024-01-10T05:06:20;19.60;25.10
80230;DHT22;69540;42.136;24.742;2024-01-10T05:08:45;19.60;25.10
80230;DHT22;69540;42.136;24.742;2024-01-10T05:11:12;19.70;25.00
80230;DHT22;69540;42.136;24.742;2024-01-10T05:13:39;19.70;24.90
80230;DHT22;69540;42.136;24.742;2024-01-10T05:16:06;19.60;24.80
80230;DHT22;69540;42.136;24.742;2024-01-10T05:18:32;19.60;24.90
80230;DHT22;69540;42.136;24.742;2024-01-10T05:20:58;19.70;24.80
80230;DHT22;69540;42.136;24.742;2024-01-10T05:23:24;19.60;24.80
80230;DHT22;69540;42.136;24.742;2024-01-10T05:25:50;19.40;24.60
80230;DHT22;69540;42.136;24.742;2024-01-10T05:28:16;19.20;24.60
80230;DHT22;69540;42.136;24.742;2024-01-10T05:30:41;19.10;24.60
80230;DHT22;69540;42.136;24.742;2024-01-10T05:33:10;18.90;24.50
80230;DHT22;69540;42.136;24.742;2024-01-10T05:35:37;18.90;24.40
80230;DHT22;69540;42.136;24.742;2024-01-10T05:38:03;18.90;24.50
80230;DHT22;69540;42.136;24.742;2024-01-10T05:40:29;18.80;24.50
80230;DHT22;69540;42.136;24.742;2024-01-10T05:42:58;18.80;24.40
80230;DHT22;69540;42.136;24.742;2024-01-10T05:45:27;18.70;24.30
80230;DHT22;69540;42.136;24.742;2024-01-10T05:47:54;18.70;24.40
80230;DHT22;69540;42.136;24.742;2024-01-10T05:50:20;18.60;24.50
80230;DHT22;69540;42.136;24.742;2024-01-10T05:52:46;18.60;24.50
80230;DHT22;69540;42.136;24.742;2024-01-10T05:55:12;18.60;24.50
80230;DHT22;69540;42.136;24.742;2024-01-10T05:57:37;18.50;25.40
80230;DHT22;69540;42.136;24.742;2024-01-10T06:00:04;18.30;24.70
80230;DHT22;69540;42.136;24.742;2024-01-10T06:02:36;18.30;24.80
80230;DHT22;69540;42.136;24.742;2024-01-10T06:05:07;18.40;25.30
80230;DHT22;69540;42.136;24.742;2024-01-10T06:07:34;18.60;25.80
80230;DHT22;69540;42.136;24.742;2024-01-10T06:10:00;18.90;25.90
80230;DHT22;69540;42.136;24.742;2024-01-10T06:12:28;19.10;25.80
80230;DHT22;69540;42.136;24.742;2024-01-10T06:14:54;19.40;26.00
80230;DHT22;69540;42.136;24.742;2024-01-10T06:17:19;19.80;26.20
80230;DHT22;69540;42.136;24.742;2024-01-10T06:19:45;20.00;26.10
80230;DHT22;69540;42.136;24.742;2024-01-10T06:22:11;20.20;25.90
80230;DHT22;69540;42.136;24.742;2024-01-10T06:24:38;20.40;26.10
80230;DHT22;69540;42.136;24.742;2024-01-10T06:27:04;20.50;26.20
80230;DHT22;69540;42.136;24.742;2024-01-10T06:29:31;20.60;26.00
80230;DHT22;69540;42.136;24.742;2024-01-10T06:31:57;20.80;25.80
80230;DHT22;69540;42.136;24.742;2024-01-10T06:34:23;20.90;25.90
80230;DHT22;69540;42.136;24.742;2024-01-10T06:36:49;21.00;26.20
80230;DHT22;69540;42.136;24.742;2024-01-10T06:39:14;21.10;26.20
80230;DHT22;69540;42.136;24.742;2024-01-10T06:41:41;21.20;26.20
80230;DHT22;69540;42.136;24.742;2024-01-10T06:44:08;21.30;26.20
80230;DHT22;69540;42.136;24.742;2024-01-10T06:46:35;21.30;26.10
80230;DHT22;69540;42.136;24.742;2024-01-10T06:49:01;21.50;26.20
80230;DHT22;69540;42.136;24.742;2024-01-10T06:51:27;21.50;26.20
80230;DHT22;69540;42.136;24.742;2024-01-10T06:53:52;21.50;26.10
80230;DHT22;69540;42.136;24.742;2024-01-10T06:56:18;21.60;26.20
80230;DHT22;69540;42.136;24.742;2024-01-10T06:58:44;21.60;26.30
80230;DHT22;69540;42.136;24.742;2024-01-10T07:01:13;21.70;26.30
80230;DHT22;69540;42.136;24.742;2024-01-10T07:03:40;21.90;26.20
80230;DHT22;69540;42.136;24.742;2024-01-10T07:06:06;21.90;26.40
80230;DHT22;69540;42.136;24.742;2024-01-10T07:08:31;22.00;26.60
80230;DHT22;69540;42.136;24.742;2024-01-10T07:10:57;22.00;26.80
80230;DHT22;69540;42.136;24.742;2024-01-10T07:13:23;22.00;26.70
80230;DHT22;69540;42.136;24.742;2024-01-10T07:15:49;22.10;27.10
80230;DHT22;69540;42.136;24.742;2024-01-10T07:18:17;22.20;26.80
80230;DHT22;69540;42.136;24.742;2024-01-10T07:20:42;22.20;27.00
80230;DHT22;69540;42.136;24.742;2024-01-10T07:23:08;22.30;27.50
80230;DHT22;69540;42.136;24.742;2024-01-10T07:25:33;22.30;27.30
80230;DHT22;69540;42.136;24.742;2024-01-10T07:27:59;22.40;27.40
80230;DHT22;69540;42.136;24.742;2024-01-10T07:30:27;22.50;27.40
80230;DHT22;69540;42.136;24.742;2024-01-10T07:32:52;22.50;27.30
80230;DHT22;69540;42.136;24.742;2024-01-10T07:35:18;22.60;27.50
80230;DHT22;69540;42.136;24.742;2024-01-10T07:37:43;22.60;27.50
80230;DHT22;69540;42.136;24.742;2024-01-10T07:40:10;22.70;27.70
80230;DHT22;69540;42.136;24.742;2024-01-10T07:42:39;22.70;27.80
80230;DHT22;69540;42.136;24.742;2024-01-10T07:45:07;22.70;27.90
80230;DHT22;69540;42.136;24.742;2024-01-10T07:47:34;22.80;27.80
80230;DHT22;69540;42.136;24.742;2024-01-10T07:52:30;22.90;27.60
80230;DHT22;69540;42.136;24.742;2024-01-10T07:54:56;23.00;27.70
80230;DHT22;69540;42.136;24.742;2024-01-10T07:57:22;23.00;27.80
80230;DHT22;69540;42.136;24.742;2024-01-10T07:59:48;23.10;27.80
80230;DHT22;69540;42.136;24.742;2024-01-10T08:02:13;23.10;27.90
80230;DHT22;69540;42.136;24.742;2024-01-10T08:04:39;23.10;27.90
80230;DHT22;69540;42.136;24.742;2024-01-10T08:07:05;23.10;27.90
80230;DHT22;69540;42.136;24.742;2024-01-10T08:09:30;23.10;27.90
80230;DHT22;69540;42.136;24.742;2024-01-10T08:11:56;23.20;27.90
80230;DHT22;69540;42.136;24.742;2024-01-10T08:14:21;23.20;27.90
80230;DHT22;69540;42.136;24.742;2024-01-10T08:16:47;23.20;27.80
80230;DHT22;69540;42.136;24.742;2024-01-10T08:19:13;23.20;27.80
80230;DHT22;69540;42.136;24.742;2024-01-10T08:21:38;23.10;27.90
80230;DHT22;69540;42.136;24.742;2024-01-10T08:24:05;23.20;28.00
80230;DHT22;69540;42.136;24.742;2024-01-10T08:26:32;23.10;27.80
80230;DHT22;69540;42.136;24.742;2024-01-10T08:28:58;23.10;27.90
80230;DHT22;69540;42.136;24.742;2024-01-10T08:31:23;23.10;27.90
80230;DHT22;69540;42.136;24.742;2024-01-10T08:33:49;23.10;27.90
80230;DHT22;69540;42.136;24.742;2024-01-10T08:36:15;23.10;28.00
80230;DHT22;69540;42.136;24.742;2024-01-10T08:38:41;23.10;28.00
80230;DHT22;69540;42.136;24.742;2024-01-10T08:41:08;23.10;27.60
80230;DHT22;69540;42.136;24.742;2024-01-10T08:43:38;23.00;27.10
80230;DHT22;69540;42.136;24.742;2024-01-10T08:46:04;22.90;26.70
80230;DHT22;69540;42.136;24.742;2024-01-10T08:48:29;22.90;27.20
80230;DHT22;69540;42.136;24.742;2024-01-10T08:50:55;22.90;27.30
80230;DHT22;69540;42.136;24.742;2024-01-10T08:53:22;22.90;27.40
80230;DHT22;69540;42.136;24.742;2024-01-10T08:55:48;22.90;27.40
80230;DHT22;69540;42.136;24.742;2024-01-10T08:58:13;22.90;27.50
80230;DHT22;69540;42.136;24.742;2024-01-10T09:00:39;22.90;27.50
80230;DHT22;69540;42.136;24.742;2024-01-10T09:29:44;22.20;28.50
80230;DHT22;69540;42.136;24.742;2024-01-10T09:32:10;22.10;29.30
80230;DHT22;69540;42.136;24.742;2024-01-10T09:34:36;22.20;29.20
80230;DHT22;69540;42.136;24.742;2024-01-10T09:37:03;22.20;29.20
80230;DHT22;69540;42.136;24.742;2024-01-10T09:39:30;22.30;29.10
80230;DHT22;69540;42.136;24.742;2024-01-10T09:41:58;22.40;28.90
80230;DHT22;69540;42.136;24.742;2024-01-10T09:44:24;22.50;28.90
80230;DHT22;69540;42.136;24.742;2024-01-10T09:46:54;22.60;28.80
80230;DHT22;69540;42.136;24.742;2024-01-10T09:49:20;22.60;28.70
80230;DHT22;69540;42.136;24.742;2024-01-10T09:51:49;22.60;28.60
80230;DHT22;69540;42.136;24.742;2024-01-10T09:54:16;22.60;28.70
80230;DHT22;69540;42.136;24.742;2024-01-10T09:56:42;22.80;28.50
80230;DHT22;69540;42.136;24.742;2024-01-10T09:59:09;22.80;28.50
80230;DHT22;69540;42.136;24.742;2024-01-10T10:01:37;22.80;28.40
80230;DHT22;69540;42.136;24.742;2024-01-10T10:04:05;22.80;28.40
80230;DHT22;69540;42.136;24.742;2024-01-10T10:06:33;22.80;28.40
80230;DHT22;69540;42.136;24.742;2024-01-10T10:08:59;22.80;29.20
80230;DHT22;69540;42.136;24.742;2024-01-10T10:11:26;22.90;28.30
80230;DHT22;69540;42.136;24.742;2024-01-10T10:13:52;22.90;28.40
80230;DHT22;69540;42.136;24.742;2024-01-10T10:16:25;22.90;28.40
80230;DHT22;69540;42.136;24.742;2024-01-10T10:18:54;22.90;28.30
80230;DHT22;69540;42.136;24.742;2024-01-10T10:21:24;22.90;28.30
80230;DHT22;69540;42.136;24.742;2024-01-10T10:24:01;22.90;28.40
80230;DHT22;69540;42.136;24.742;2024-01-10T10:26:28;22.90;28.30
80230;DHT22;69540;42.136;24.742;2024-01-10T10:28:54;22.90;28.30
80230;DHT22;69540;42.136;24.742;2024-01-10T10:31:21;22.90;28.10
80230;DHT22;69540;42.136;24.742;2024-01-10T10:33:49;22.90;28.20
80230;DHT22;69540;42.136;24.742;2024-01-10T10:36:18;22.80;28.30
80230;DHT22;69540;42.136;24.742;2024-01-10T10:38:46;22.90;28.20
80230;DHT22;69540;42.136;24.742;2024-01-10T10:41:14;22.90;28.20
80230;DHT22;69540;42.136;24.742;2024-01-10T10:43:40;22.80;28.20
80230;DHT22;69540;42.136;24.742;2024-01-10T10:46:08;22.80;28.20
80230;DHT22;69540;42.136;24.742;2024-01-10T10:48:43;22.80;28.20
80230;DHT22;69540;42.136;24.742;2024-01-10T10:51:15;22.80;28.30
80230;DHT22;69540;42.136;24.742;2024-01-10T10:53:43;22.80;28.40
80230;DHT22;69540;42.136;24.742;2024-01-10T10:56:11;22.90;28.30
80230;DHT22;69540;42.136;24.742;2024-01-10T10:58:42;23.00;28.20
80230;DHT22;69540;42.136;24.742;2024-01-10T11:01:12;23.00;28.10
80230;DHT22;69540;42.136;24.742;2024-01-10T11:03:39;23.10;28.10
80230;DHT22;69540;42.136;24.742;2024-01-10T11:06:06;23.10;28.10
80230;DHT22;69540;42.136;24.742;2024-01-10T11:11:03;23.20;28.20
80230;DHT22;69540;42.136;24.742;2024-01-10T11:19:22;23.30;28.10
80230;DHT22;69540;42.136;24.742;2024-01-10T11:22:24;23.30;28.10
80230;DHT22;69540;42.136;24.742;2024-01-10T11:24:54;23.30;28.10
80230;DHT22;69540;42.136;24.742;2024-01-10T11:27:20;23.40;28.10
80230;DHT22;69540;42.136;24.742;2024-01-10T11:29:46;23.40;28.10
80230;DHT22;69540;42.136;24.742;2024-01-10T11:32:16;23.40;27.00
80230;DHT22;69540;42.136;24.742;2024-01-10T11:37:20;23.00;25.80
80230;DHT22;69540;42.136;24.742;2024-01-10T11:39:46;23.10;26.30
80230;DHT22;69540;42.136;24.742;2024-01-10T11:42:21;23.00;26.90
80230;DHT22;69540;42.136;24.742;2024-01-10T11:44:48;23.10;27.00
80230;DHT22;69540;42.136;24.742;2024-01-10T11:47:18;23.10;27.00
80230;DHT22;69540;42.136;24.742;2024-01-10T11:49:55;23.20;27.00
80230;DHT22;69540;42.136;24.742;2024-01-10T11:52:22;23.10;27.20
80230;DHT22;69540;42.136;24.742;2024-01-10T11:54:48;23.10;27.20
80230;DHT22;69540;42.136;24.742;2024-01-10T11:57:21;23.20;27.20
80230;DHT22;69540;42.136;24.742;2024-01-10T11:59:50;23.10;27.10
80230;DHT22;69540;42.136;24.742;2024-01-10T12:02:17;23.20;27.10
80230;DHT22;69540;42.136;24.742;2024-01-10T12:04:43;23.10;27.10
80230;DHT22;69540;42.136;24.742;2024-01-10T12:07:09;23.20;27.20
80230;DHT22;69540;42.136;24.742;2024-01-10T12:09:35;23.20;27.30
80230;DHT22;69540;42.136;24.742;2024-01-10T12:12:02;23.10;27.30
80230;DHT22;69540;42.136;24.742;2024-01-10T12:14:30;23.10;27.50
80230;DHT22;69540;42.136;24.742;2024-01-10T12:16:56;23.20;27.70
80230;DHT22;69540;42.136;24.742;2024-01-10T12:19:22;23.10;27.70
80230;DHT22;69540;42.136;24.742;2024-01-10T12:21:51;23.10;27.80
80230;DHT22;69540;42.136;24.742;2024-01-10T12:24:18;23.10;27.80
80230;DHT22;69540;42.136;24.742;2024-01-10T12:26:47;23.10;27.80
80230;DHT22;69540;42.136;24.742;2024-01-10T12:29:17;23.10;27.80
80230;DHT22;69540;42.136;24.742;2024-01-10T12:31:43;23.10;28.40
80230;DHT22;69540;42.136;24.742;2024-01-10T12:34:11;22.90;28.40
80230;DHT22;69540;42.136;24.742;2024-01-10T12:36:37;23.00;28.50
80230;DHT22;69540;42.136;24.742;2024-01-10T12:39:03;23.00;28.60
80230;DHT22;69540;42.136;24.742;2024-01-10T12:41:32;22.90;28.70
80230;DHT22;69540;42.136;24.742;2024-01-10T12:43:59;22.90;28.70
80230;DHT22;69540;42.136;24.742;2024-01-10T12:46:28;22.90;28.70
80230;DHT22;69540;42.136;24.742;2024-01-10T12:49:04;22.90;28.50
80230;DHT22;69540;42.136;24.742;2024-01-10T12:51:31;22.90;28.90
80230;DHT22;69540;42.136;24.742;2024-01-10T12:53:58;22.90;28.70
80230;DHT22;69540;42.136;24.742;2024-01-10T12:56:24;22.90;28.50
80230;DHT22;69540;42.136;24.742;2024-01-10T12:58:50;22.90;28.40
80230;DHT22;69540;42.136;24.742;2024-01-10T13:01:16;22.90;28.40
80230;DHT22;69540;42.136;24.742;2024-01-10T13:03:42;23.00;28.40
80230;DHT22;69540;42.136;24.742;2024-01-10T13:06:09;23.00;28.40
80230;DHT22;69540;42.136;24.742;2024-01-10T13:08:35;23.00;28.80
80230;DHT22;69540;42.136;24.742;2024-01-10T13:11:02;23.00;28.60
80230;DHT22;69540;42.136;24.742;2024-01-10T13:13:34;23.00;28.60
80230;DHT22;69540;42.136;24.742;2024-01-10T13:15:59;23.00;28.70
80230;DHT22;69540;42.136;24.742;2024-01-10T13:18:25;23.00;28.60
80230;DHT22;69540;42.136;24.742;2024-01-10T13:20:54;23.00;28.50
80230;DHT22;69540;42.136;24.742;2024-01-10T13:23:19;23.00;28.60
80230;DHT22;69540;42.136;24.742;2024-01-10T13:25:47;23.00;28.60
80230;DHT22;69540;42.136;24.742;2024-01-10T13:28:14;23.00;28.70
80230;DHT22;69540;42.136;24.742;2024-01-10T13:30:39;23.00;29.60
80230;DHT22;69540;42.136;24.742;2024-01-10T13:33:11;23.00;28.60
80230;DHT22;69540;42.136;24.742;2024-01-10T13:35:37;23.00;28.60
80230;DHT22;69540;42.136;24.742;2024-01-10T13:38:04;23.00;28.60
80230;DHT22;69540;42.136;24.742;2024-01-10T13:40:30;23.00;28.70
80230;DHT22;69540;42.136;24.742;2024-01-10T13:42:57;23.00;28.80
80230;DHT22;69540;42.136;24.742;2024-01-10T13:45:23;23.00;28.80
80230;DHT22;69540;42.136;24.742;2024-01-10T13:47:49;23.00;28.90
80230;DHT22;69540;42.136;24.742;2024-01-10T13:50:15;23.00;29.90
80230;DHT22;69540;42.136;24.742;2024-01-10T13:52:41;23.00;29.00
80230;DHT22;69540;42.136;24.742;2024-01-10T13:55:08;23.00;29.00
80230;DHT22;69540;42.136;24.742;2024-01-10T13:57:34;23.00;29.10
80230;DHT22;69540;42.136;24.742;2024-01-10T14:00:01;23.00;29.00
80230;DHT22;69540;42.136;24.742;2024-01-10T14:02:29;23.00;29.00
80230;DHT22;69540;42.136;24.742;2024-01-10T14:04:54;23.00;29.10
80230;DHT22;69540;42.136;24.742;2024-01-10T14:07:20;23.00;29.10
80230;DHT22;69540;42.136;24.742;2024-01-10T14:09:46;23.00;29.10
80230;DHT22;69540;42.136;24.742;2024-01-10T14:12:13;23.00;29.10
80230;DHT22;69540;42.136;24.742;2024-01-10T14:14:38;23.00;29.20
80230;DHT22;69540;42.136;24.742;2024-01-10T14:17:05;23.00;29.30
80230;DHT22;69540;42.136;24.742;2024-01-10T14:19:31;23.00;29.20
80230;DHT22;69540;42.136;24.742;2024-01-10T14:21:58;23.00;29.20
80230;DHT22;69540;42.136;24.742;2024-01-10T14:24:23;23.00;29.30
80230;DHT22;69540;42.136;24.742;2024-01-10T14:26:50;23.00;29.30
80230;DHT22;69540;42.136;24.742;2024-01-10T14:29:16;23.00;29.40
80230;DHT22;69540;42.136;24.742;2024-01-10T14:31:41;23.00;29.30
80230;DHT22;69540;42.136;24.742;2024-01-10T14:34:07;23.00;29.40
80230;DHT22;69540;42.136;24.742;2024-01-10T14:36:32;23.00;29.20
80230;DHT22;69540;42.136;24.742;2024-01-10T14:38:59;23.00;29.20
80230;DHT22;69540;42.136;24.742;2024-01-10T14:41:25;23.00;29.30
